createdAt,value
2022-12-01T00:01:38.873Z,8.88
2022-12-01T00:04:07.252Z,9.82
2022-12-01T00:06:36.606Z,5.53
2022-12-01T00:09:23.458Z,8.80
2022-12-01T00:11:51.878Z,15.48
2022-12-01T00:14:19.858Z,5.15
2022-12-01T00:16:48.109Z,9.98
2022-12-01T00:19:17.807Z,6.53
2022-12-01T00:21:46.067Z,7.82
2022-12-01T00:24:14.179Z,8.05
2022-12-01T00:26:42.829Z,13.62
2022-12-01T00:29:10.811Z,6.78
2022-12-01T00:31:39.042Z,7.45
2022-12-01T00:34:11.362Z,6.15
2022-12-01T00:36:40.095Z,9.50
2022-12-01T00:39:09.698Z,7.40
2022-12-01T00:41:37.794Z,7.85
2022-12-01T00:44:06.209Z,7.97
2022-12-01T00:46:34.850Z,7.57
2022-12-01T00:49:03.443Z,9.15
2022-12-01T00:51:31.842Z,6.53
2022-12-01T00:54:00.384Z,5.10
2022-12-01T00:56:28.687Z,8.32
2022-12-01T00:58:56.686Z,3.28
2022-12-01T01:01:25.227Z,9.50
2022-12-01T01:03:53.552Z,3.67
2022-12-01T01:06:21.719Z,8.05
2022-12-01T01:08:50.272Z,5.57
2022-12-01T01:11:18.777Z,5.35
2022-12-01T01:13:47.094Z,5.30
2022-12-01T01:16:21.704Z,2.92
2022-12-01T01:18:50.041Z,5.62
2022-12-01T01:21:21.274Z,6.90
2022-12-01T01:23:51.316Z,5.53
2022-12-01T01:26:22.617Z,9.85
2022-12-01T01:28:51.651Z,7.97
2022-12-01T01:31:22.579Z,6.05
2022-12-01T01:33:51.574Z,5.50
2022-12-01T01:36:20.006Z,5.37
2022-12-01T01:38:51.140Z,6.43
2022-12-01T01:41:20.437Z,5.55
2022-12-01T01:43:51.378Z,5.50
2022-12-01T01:46:22.512Z,4.25
2022-12-01T01:48:57.822Z,4.43
2022-12-01T01:51:32.499Z,3.12
2022-12-01T01:54:05.553Z,3.90
2022-12-01T01:56:36.031Z,4.72
2022-12-01T01:59:04.718Z,2.92
2022-12-01T02:01:32.915Z,4.30
2022-12-01T02:04:01.697Z,3.67
2022-12-01T02:06:30.049Z,5.85
2022-12-01T02:08:58.176Z,4.05
2022-12-01T02:12:12.440Z,3.33
2022-12-01T02:15:18.266Z,5.60
2022-12-01T02:18:20.899Z,3.40
2022-12-01T02:21:20.743Z,7.30
2022-12-01T02:24:25.114Z,4.30
2022-12-01T02:27:13.046Z,6.87
2022-12-01T02:30:11.224Z,2.80
2022-12-01T02:33:04.289Z,6.60
2022-12-01T02:35:54.434Z,5.20
2022-12-01T02:38:33.075Z,5.95
2022-12-01T02:41:27.827Z,5.93
2022-12-01T02:44:19.907Z,4.45
2022-12-01T02:46:57.319Z,5.62
2022-12-01T02:49:35.826Z,6.25
2022-12-01T02:52:06.693Z,3.30
2022-12-01T02:54:36.139Z,5.55
2022-12-01T02:57:05.282Z,7.03
2022-12-01T02:59:33.479Z,8.05
2022-12-01T03:02:42.488Z,8.18
2022-12-01T03:05:24.340Z,3.28
2022-12-01T03:08:13.720Z,4.65
2022-12-01T03:10:58.197Z,5.82
2022-12-01T03:13:41.089Z,3.50
2022-12-01T03:16:29.192Z,3.97
2022-12-01T03:19:14.508Z,4.50
2022-12-01T03:21:53.005Z,5.55
2022-12-01T03:24:26.293Z,6.75
2022-12-01T03:26:58.051Z,2.08
2022-12-01T03:29:41.412Z,2.80
2022-12-01T03:32:19.619Z,4.28
2022-12-01T03:34:57.466Z,5.20
2022-12-01T03:37:32.782Z,6.78
2022-12-01T03:42:38.609Z,8.75
2022-12-01T03:45:11.950Z,15.30
2022-12-01T03:47:40.965Z,13.85
2022-12-01T03:50:13.996Z,9.02
2022-12-01T03:53:11.664Z,7.07
2022-12-01T03:55:43.914Z,3.78
2022-12-01T03:58:21.386Z,10.18
2022-12-01T04:00:53.325Z,4.87
2022-12-01T04:03:25.024Z,4.43
2022-12-01T04:05:53.513Z,8.02
2022-12-01T04:08:22.056Z,9.70
2022-12-01T04:10:50.580Z,10.43
2022-12-01T04:13:25.644Z,10.05
2022-12-01T04:15:56.228Z,10.90
2022-12-01T04:18:24.498Z,9.63
2022-12-01T04:20:52.560Z,6.95
2022-12-01T04:23:39.439Z,2.75
2022-12-01T04:26:12.623Z,5.90
2022-12-01T04:28:44.214Z,6.18
2022-12-01T04:31:12.581Z,2.85
2022-12-01T04:33:40.794Z,4.07
2022-12-01T04:36:09.815Z,4.50
2022-12-01T04:38:37.893Z,5.22
2022-12-01T04:41:14.124Z,4.93
2022-12-01T04:43:42.842Z,5.22
2022-12-01T04:46:11.433Z,11.60
2022-12-01T04:48:40.380Z,5.75
2022-12-01T04:51:09.289Z,10.90
2022-12-01T04:53:37.495Z,6.95
2022-12-01T04:56:05.981Z,7.18
2022-12-01T04:58:37.659Z,5.00
2022-12-01T05:01:11.078Z,7.62
2022-12-01T05:03:41.161Z,4.45
2022-12-01T05:06:15.324Z,3.28
2022-12-01T05:08:43.805Z,7.53
2022-12-01T05:11:13.983Z,5.45
2022-12-01T05:13:45.129Z,7.85
2022-12-01T05:16:16.211Z,7.57
2022-12-01T05:18:51.152Z,7.87
2022-12-01T05:21:20.158Z,6.50
2022-12-01T05:23:48.217Z,4.30
2022-12-01T05:26:16.345Z,8.27
2022-12-01T05:28:45.072Z,5.18
2022-12-01T05:31:13.290Z,10.18
2022-12-01T05:33:41.382Z,3.65
2022-12-01T05:36:09.888Z,5.05
2022-12-01T05:38:37.831Z,6.68
2022-12-01T05:41:06.026Z,12.15
2022-12-01T05:43:34.425Z,4.30
2022-12-01T05:46:03.797Z,4.28
2022-12-01T05:48:32.065Z,3.00
2022-12-01T05:51:00.715Z,7.40
2022-12-01T05:53:28.913Z,4.85
2022-12-01T05:55:56.997Z,5.40
2022-12-01T05:58:25.460Z,4.30
2022-12-01T06:00:53.484Z,3.25
2022-12-01T06:03:22.155Z,5.57
2022-12-01T06:05:50.543Z,3.72
2022-12-01T06:08:18.881Z,3.83
2022-12-01T06:10:47.603Z,4.62
2022-12-01T06:13:15.894Z,6.53
2022-12-01T06:15:44.023Z,13.05
2022-12-01T06:18:12.544Z,5.10
2022-12-01T06:20:40.738Z,4.82
2022-12-01T06:23:08.771Z,5.87
2022-12-01T06:25:37.150Z,6.15
2022-12-01T06:28:05.228Z,8.00
2022-12-01T06:30:33.219Z,5.30
2022-12-01T06:33:01.698Z,2.05
2022-12-01T06:35:29.835Z,4.40
2022-12-01T06:37:58.275Z,6.95
2022-12-01T06:40:27.172Z,7.45
2022-12-01T06:42:55.595Z,6.57
2022-12-01T06:45:23.609Z,11.25
2022-12-01T06:47:55.711Z,7.12
2022-12-01T06:50:25.031Z,5.87
2022-12-01T06:52:53.857Z,5.30
2022-12-01T06:55:22.199Z,4.68
2022-12-01T06:57:50.723Z,15.88
2022-12-01T07:00:19.626Z,7.25
2022-12-01T07:02:48.167Z,8.05
2022-12-01T07:05:16.244Z,21.23
2022-12-01T07:07:44.884Z,5.30
2022-12-01T07:10:14.207Z,6.95
2022-12-01T07:12:42.734Z,8.57
2022-12-01T07:15:11.502Z,4.03
2022-12-01T07:17:39.687Z,9.00
2022-12-01T07:20:10.138Z,4.72
2022-12-01T07:22:39.669Z,11.23
2022-12-01T07:25:08.393Z,20.37
2022-12-01T07:27:36.889Z,15.85
2022-12-01T07:30:05.965Z,7.60
2022-12-01T07:32:36.420Z,9.13
2022-12-01T07:35:04.636Z,10.52
2022-12-01T07:37:33.023Z,12.18
2022-12-01T07:40:01.652Z,10.68
2022-12-01T07:42:29.825Z,22.65
2022-12-01T07:44:58.187Z,16.75
2022-12-01T07:47:26.462Z,15.20
2022-12-01T07:49:54.473Z,13.20
2022-12-01T07:52:22.837Z,12.23
2022-12-01T07:54:50.939Z,11.15
2022-12-01T07:57:20.639Z,8.35
2022-12-01T07:59:49.515Z,4.50
2022-12-01T08:02:18.114Z,8.13
2022-12-01T08:04:46.577Z,9.35
2022-12-01T08:07:14.548Z,16.60
2022-12-01T08:09:45.056Z,11.57
2022-12-01T08:12:13.445Z,12.20
2022-12-01T08:14:41.510Z,8.75
2022-12-01T08:17:10.037Z,8.82
2022-12-01T08:19:38.271Z,6.07
2022-12-01T08:22:06.340Z,9.30
2022-12-01T08:24:34.520Z,10.57
2022-12-01T08:27:02.828Z,9.63
2022-12-01T08:29:30.932Z,10.73
2022-12-01T08:31:59.202Z,10.15
2022-12-01T08:34:27.839Z,9.57
2022-12-01T08:36:55.831Z,12.23
2022-12-01T08:39:24.145Z,10.77
2022-12-01T08:41:52.458Z,11.02
2022-12-01T08:44:20.558Z,14.18
2022-12-01T08:46:48.780Z,10.52
2022-12-01T08:49:17.415Z,11.70
2022-12-01T08:51:45.528Z,9.40
2022-12-01T08:54:13.920Z,14.07
2022-12-01T08:56:44.385Z,17.70
2022-12-01T08:59:12.951Z,12.13
2022-12-01T09:01:53.321Z,14.85
2022-12-01T09:04:26.628Z,13.70
2022-12-01T09:06:57.576Z,11.27
2022-12-01T09:09:28.509Z,13.23
2022-12-01T09:11:57.123Z,14.32
2022-12-01T09:14:25.673Z,13.48
2022-12-01T09:16:53.890Z,17.50
2022-12-01T09:19:25.024Z,13.70
2022-12-01T09:21:53.737Z,17.10
2022-12-01T09:24:23.236Z,23.92
2022-12-01T09:26:55.088Z,13.70
2022-12-01T09:29:23.827Z,9.88
2022-12-01T09:31:56.177Z,15.40
2022-12-01T09:34:25.460Z,13.80
2022-12-01T09:36:56.711Z,11.63
2022-12-01T09:39:26.163Z,14.18
2022-12-01T09:42:09.396Z,15.32
2022-12-01T09:44:38.086Z,10.68
2022-12-01T09:47:11.827Z,10.15
2022-12-01T09:50:21.888Z,9.97
2022-12-01T09:52:53.850Z,11.38
2022-12-01T09:55:24.493Z,14.35
2022-12-01T09:57:55.774Z,11.07
2022-12-01T10:00:26.652Z,12.25
2022-12-01T10:03:12.519Z,13.25
2022-12-01T10:06:26.739Z,8.32
2022-12-01T10:08:55.039Z,14.52
2022-12-01T10:11:33.401Z,17.85
2022-12-01T10:14:04.162Z,12.63
2022-12-01T10:16:45.959Z,13.93
2022-12-01T10:19:45.715Z,15.65
2022-12-01T10:22:39.835Z,15.45
2022-12-01T10:25:17.249Z,12.95
2022-12-01T10:27:48.094Z,16.85
2022-12-01T10:30:19.680Z,15.10
2022-12-01T10:33:01.950Z,15.32
2022-12-01T10:35:37.022Z,12.45
2022-12-01T10:38:13.391Z,16.20
2022-12-01T10:40:43.125Z,14.52
2022-12-01T10:43:11.227Z,17.27
2022-12-01T10:45:44.358Z,12.48
2022-12-01T10:48:18.591Z,8.32
2022-12-01T10:50:47.928Z,11.25
2022-12-01T10:53:36.756Z,11.75
2022-12-01T10:56:21.901Z,9.20
2022-12-01T10:59:01.870Z,11.27
2022-12-01T11:01:35.939Z,5.50
2022-12-01T11:04:21.382Z,6.55
2022-12-01T11:06:51.137Z,5.35
2022-12-01T11:09:26.360Z,6.45
2022-12-01T11:12:00.793Z,5.65
2022-12-01T11:14:43.348Z,8.70
2022-12-01T11:17:40.552Z,2.33
2022-12-01T11:20:39.654Z,1.60
2022-12-01T11:23:24.613Z,5.30
2022-12-01T11:26:20.934Z,4.07
2022-12-01T11:29:00.240Z,3.67
2022-12-01T11:31:41.113Z,4.75
2022-12-01T11:34:42.272Z,1.65
2022-12-01T11:37:17.639Z,5.28
2022-12-01T11:39:48.535Z,2.90
2022-12-01T11:42:27.109Z,2.53
2022-12-01T11:45:19.209Z,7.43
2022-12-01T11:48:01.876Z,3.90
2022-12-01T11:50:33.975Z,2.85
2022-12-01T11:53:03.355Z,2.87
2022-12-01T11:55:31.974Z,3.20
2022-12-01T11:58:03.395Z,3.03
2022-12-01T12:00:54.182Z,4.00
2022-12-01T12:03:39.431Z,3.40
2022-12-01T12:09:28.074Z,5.07
2022-12-01T12:11:59.084Z,3.30
2022-12-01T12:15:10.613Z,3.78
2022-12-01T12:17:53.179Z,3.50
2022-12-01T12:20:35.520Z,2.50
2022-12-01T12:23:20.579Z,2.85
2022-12-01T12:26:13.403Z,3.90
2022-12-01T12:29:19.207Z,3.58
2022-12-01T12:32:04.857Z,2.53
2022-12-01T12:37:06.718Z,2.70
2022-12-01T12:40:04.929Z,3.45
2022-12-01T12:43:16.446Z,3.10
2022-12-01T12:45:54.236Z,2.75
2022-12-01T12:48:28.677Z,3.00
2022-12-01T12:51:13.515Z,3.92
2022-12-01T12:54:00.144Z,3.35
2022-12-01T12:56:33.065Z,2.78
2022-12-01T12:59:10.422Z,2.62
2022-12-01T13:01:44.680Z,5.15
2022-12-01T13:04:27.321Z,3.95
2022-12-01T13:07:07.659Z,2.78
2022-12-01T13:09:42.321Z,3.37
2022-12-01T13:12:27.253Z,2.78
2022-12-01T13:15:19.926Z,5.53
2022-12-01T13:17:56.882Z,2.30
2022-12-01T13:20:28.729Z,2.25
2022-12-01T13:23:00.097Z,3.67
2022-12-01T13:25:38.185Z,4.53
2022-12-01T13:28:17.423Z,4.30
2022-12-01T13:31:07.306Z,3.50
2022-12-01T13:33:37.646Z,3.15
2022-12-01T13:36:45.033Z,4.75
2022-12-01T13:39:37.583Z,4.77
2022-12-01T13:42:07.235Z,3.90
2022-12-01T13:44:43.307Z,2.33
2022-12-01T13:47:11.590Z,3.33
2022-12-01T13:49:45.685Z,3.90
2022-12-01T13:55:09.783Z,9.65
2022-12-01T13:57:43.467Z,2.12
2022-12-01T14:00:30.426Z,3.10
2022-12-01T14:03:17.354Z,3.60
2022-12-01T14:05:57.185Z,3.75
2022-12-01T14:08:45.258Z,3.15
2022-12-01T14:11:28.761Z,4.70
2022-12-01T14:14:02.994Z,9.20
2022-12-01T14:16:58.432Z,6.80
2022-12-01T14:22:02.349Z,4.37
2022-12-01T14:24:41.503Z,4.80
2022-12-01T14:27:11.930Z,8.73
2022-12-01T14:29:44.542Z,13.70
2022-12-01T14:32:15.561Z,14.98
2022-12-01T14:34:44.661Z,25.50
2022-12-01T14:37:27.612Z,24.17
2022-12-01T14:40:24.211Z,16.77
2022-12-01T14:43:13.787Z,14.40
2022-12-01T14:45:51.141Z,24.65
2022-12-01T14:48:28.190Z,17.92
2022-12-01T14:51:26.352Z,19.83
2022-12-01T14:53:56.091Z,10.77
2022-12-01T14:56:25.894Z,6.62
2022-12-01T14:58:59.947Z,7.65
2022-12-01T15:01:36.954Z,4.10
2022-12-01T15:04:06.539Z,4.20
2022-12-01T15:06:37.452Z,6.35
2022-12-01T15:12:02.974Z,8.45
2022-12-01T15:14:39.488Z,5.78
2022-12-01T15:17:08.988Z,4.65
2022-12-01T15:19:40.324Z,6.40
2022-12-01T15:22:14.951Z,5.40
2022-12-01T15:24:44.090Z,7.50
2022-12-01T15:27:42.854Z,6.80
2022-12-01T15:30:15.746Z,5.20
2022-12-01T15:32:45.952Z,5.03
2022-12-01T15:35:20.674Z,6.53
2022-12-01T15:37:50.875Z,7.35
2022-12-01T15:43:22.165Z,6.35
2022-12-01T15:46:01.242Z,9.30
2022-12-01T15:48:31.128Z,7.78
2022-12-01T15:51:01.152Z,7.80
2022-12-01T15:53:35.601Z,6.47
2022-12-01T15:56:08.488Z,9.48
2022-12-01T15:58:47.577Z,19.40
2022-12-01T16:01:20.957Z,37.05
2022-12-01T16:04:04.312Z,37.92
2022-12-01T16:06:38.901Z,56.97
2022-12-01T16:09:21.773Z,49.58
2022-12-01T16:12:18.482Z,28.67
2022-12-01T16:14:50.247Z,25.15
2022-12-01T16:17:18.673Z,25.85
2022-12-01T16:19:47.802Z,20.08
2022-12-01T16:22:21.761Z,28.17
2022-12-01T16:24:53.861Z,29.85
2022-12-01T16:27:28.397Z,22.08
2022-12-01T16:29:56.884Z,26.30
2022-12-01T16:32:43.898Z,16.98
2022-12-01T16:35:21.453Z,16.08
2022-12-01T16:37:49.969Z,16.52
2022-12-01T16:40:18.724Z,24.77
2022-12-01T16:42:49.889Z,44.20
2022-12-01T16:45:19.745Z,18.20
2022-12-01T16:47:49.028Z,23.00
2022-12-01T16:50:19.708Z,20.27
2022-12-01T16:52:48.370Z,21.50
2022-12-01T16:55:41.235Z,11.25
2022-12-01T16:58:10.028Z,15.50
2022-12-01T17:00:38.093Z,17.45
2022-12-01T17:03:06.728Z,12.25
2022-12-01T17:05:35.340Z,7.43
2022-12-01T17:08:04.127Z,6.68
2022-12-01T17:10:32.342Z,10.48
2022-12-01T17:13:00.906Z,7.87
2022-12-01T17:15:29.056Z,4.62
2022-12-01T17:17:57.542Z,4.18
2022-12-01T17:20:25.849Z,6.75
2022-12-01T17:22:54.068Z,7.82
2022-12-01T17:25:22.189Z,9.02
2022-12-01T17:27:51.542Z,11.23
2022-12-01T17:30:19.623Z,14.93
2022-12-01T17:32:47.920Z,13.45
2022-12-01T17:35:16.686Z,15.88
2022-12-01T17:37:45.278Z,20.70
2022-12-01T17:40:14.712Z,8.95
2022-12-01T17:42:48.536Z,18.65
2022-12-01T17:45:18.832Z,12.45
2022-12-01T17:47:48.304Z,54.20
2022-12-01T17:50:17.214Z,43.72
2022-12-01T17:52:45.336Z,30.15
2022-12-01T17:55:13.714Z,21.02
2022-12-01T17:57:41.780Z,33.92
2022-12-01T18:00:11.048Z,36.95
2022-12-01T18:02:39.681Z,28.73
2022-12-01T18:05:08.170Z,16.50
2022-12-01T18:07:36.373Z,19.50
2022-12-01T18:10:05.168Z,23.62
2022-12-01T18:12:33.589Z,23.85
2022-12-01T18:15:01.867Z,26.35
2022-12-01T18:17:31.374Z,19.40
2022-12-01T18:20:00.164Z,18.52
2022-12-01T18:22:28.628Z,32.28
2022-12-01T18:24:58.663Z,33.53
2022-12-01T18:27:27.525Z,27.95
2022-12-01T18:29:55.803Z,25.25
2022-12-01T18:32:24.161Z,11.93
2022-12-01T18:34:53.658Z,6.18
2022-12-01T18:37:22.095Z,8.98
2022-12-01T18:39:51.219Z,19.77
2022-12-01T18:42:19.449Z,16.23
2022-12-01T18:44:47.980Z,14.02
2022-12-01T18:47:17.195Z,9.88
2022-12-01T18:49:45.823Z,11.10
2022-12-01T18:52:14.163Z,11.32
2022-12-01T18:54:42.767Z,7.65
2022-12-01T18:57:11.993Z,11.80
2022-12-01T18:59:40.395Z,12.05
2022-12-01T19:02:10.442Z,8.38
2022-12-01T19:04:38.836Z,14.75
2022-12-01T19:07:08.520Z,20.17
2022-12-01T19:09:37.307Z,14.27
2022-12-01T19:12:06.671Z,26.27
2022-12-01T19:14:35.269Z,14.98
2022-12-01T19:17:04.144Z,35.22
2022-12-01T19:19:37.425Z,11.35
2022-12-01T19:22:06.790Z,10.70
2022-12-01T19:24:35.344Z,13.05
2022-12-01T19:27:04.401Z,10.00
2022-12-01T19:29:34.848Z,13.30
2022-12-01T19:32:03.448Z,11.45
2022-12-01T19:34:32.250Z,7.57
2022-12-01T19:37:03.025Z,20.77
2022-12-01T19:39:32.080Z,14.63
2022-12-01T19:42:00.485Z,17.52
2022-12-01T19:44:28.966Z,14.52
2022-12-01T19:46:57.728Z,17.85
2022-12-01T19:49:30.929Z,20.77
2022-12-01T19:51:59.297Z,25.23
2022-12-01T19:54:28.804Z,22.62
2022-12-01T19:56:57.113Z,21.17
2022-12-01T19:59:25.633Z,12.93
2022-12-01T20:01:54.630Z,14.63
2022-12-01T20:04:24.190Z,15.30
2022-12-01T20:06:52.589Z,16.30
2022-12-01T20:09:21.021Z,43.25
2022-12-01T20:11:49.819Z,22.62
2022-12-01T20:14:18.100Z,15.30
2022-12-01T20:16:46.404Z,10.38
2022-12-01T20:19:15.144Z,14.80
2022-12-01T20:21:44.262Z,8.50
2022-12-01T20:24:18.670Z,16.15
2022-12-01T20:26:52.347Z,13.48
2022-12-01T20:29:26.887Z,11.68
2022-12-01T20:32:03.082Z,11.52
2022-12-01T20:34:34.918Z,9.15
2022-12-01T20:37:04.504Z,12.90
2022-12-01T20:39:35.400Z,15.15
2022-12-01T20:42:04.640Z,10.38
2022-12-01T20:44:33.465Z,9.07
2022-12-01T20:47:01.949Z,10.40
2022-12-01T20:49:31.342Z,6.93
2022-12-01T20:51:59.732Z,10.60
2022-12-01T20:54:29.569Z,12.00
2022-12-01T20:56:59.399Z,7.70
2022-12-01T20:59:28.689Z,8.85
2022-12-01T21:01:57.010Z,6.72
2022-12-01T21:04:25.643Z,11.02
2022-12-01T21:06:57.934Z,11.23
2022-12-01T21:09:26.667Z,9.30
2022-12-01T21:12:15.493Z,7.32
2022-12-01T21:15:06.305Z,5.97
2022-12-01T21:18:04.025Z,6.60
2022-12-01T21:20:39.264Z,9.23
2022-12-01T21:23:14.325Z,8.73
2022-12-01T21:25:43.316Z,8.77
2022-12-01T21:28:24.012Z,9.82
2022-12-01T21:31:01.614Z,6.25
2022-12-01T21:33:35.469Z,13.73
2022-12-01T21:36:14.751Z,6.22
2022-12-01T21:38:43.710Z,7.50
2022-12-01T21:41:21.995Z,10.27
2022-12-01T21:43:50.351Z,10.73
2022-12-01T21:46:19.048Z,18.33
2022-12-01T21:48:47.549Z,17.05
2022-12-01T21:51:21.148Z,8.20
2022-12-01T21:53:50.920Z,15.60
2022-12-01T21:56:25.502Z,14.75
2022-12-01T21:58:57.474Z,12.40
2022-12-01T22:01:30.881Z,13.68
2022-12-01T22:04:02.701Z,8.60
2022-12-01T22:06:44.746Z,9.40
2022-12-01T22:09:33.211Z,10.40
2022-12-01T22:12:10.508Z,9.93
2022-12-01T22:14:39.180Z,9.52
2022-12-01T22:17:07.235Z,14.43
2022-12-01T22:19:42.445Z,10.60
2022-12-01T22:22:10.741Z,15.30
2022-12-01T22:24:41.400Z,13.02
2022-12-01T22:27:29.437Z,10.88
2022-12-01T22:30:06.592Z,14.15
2022-12-01T22:32:39.333Z,9.85
2022-12-01T22:35:31.771Z,7.55
2022-12-01T22:38:14.107Z,10.57
2022-12-01T22:40:48.480Z,10.63
2022-12-01T22:43:16.482Z,4.80
2022-12-01T22:46:00.071Z,10.77
2022-12-01T22:48:28.151Z,8.32
2022-12-01T22:51:08.207Z,7.47
2022-12-01T22:53:36.529Z,9.38
2022-12-01T22:56:20.922Z,5.12
2022-12-01T22:58:49.439Z,10.30
2022-12-01T23:01:24.166Z,9.95
2022-12-01T23:04:20.637Z,4.47
2022-12-01T23:06:53.046Z,6.25
2022-12-01T23:09:31.402Z,13.07
2022-12-01T23:12:11.693Z,9.82
2022-12-01T23:14:51.593Z,11.00
2022-12-01T23:17:24.372Z,9.48
2022-12-01T23:19:59.712Z,6.65
2022-12-01T23:22:28.359Z,5.15
2022-12-01T23:24:56.912Z,4.95
2022-12-01T23:27:25.138Z,7.15
2022-12-01T23:29:54.208Z,7.90
2022-12-01T23:32:22.279Z,8.82
2022-12-01T23:34:52.728Z,10.32
2022-12-01T23:37:46.391Z,6.93
2022-12-01T23:40:29.615Z,8.75
2022-12-01T23:43:18.620Z,5.25
2022-12-01T23:45:49.720Z,12.90
2022-12-01T23:48:23.457Z,9.40
2022-12-01T23:50:53.716Z,9.52
2022-12-01T23:53:33.065Z,10.25
2022-12-01T23:56:10.192Z,48.53
2022-12-01T23:58:38.866Z,40.97
